createdAt,value
2019-05-07T00:01:02.873Z,99965.94
2019-05-07T00:04:09.075Z,99959.73
2019-05-07T00:07:14.247Z,99959.90
2019-05-07T00:10:19.430Z,99963.55
2019-05-07T00:13:24.634Z,99961.45
2019-05-07T00:16:29.840Z,99951.50
2019-05-07T00:19:35.037Z,99949.98
2019-05-07T00:22:41.945Z,99945.84
2019-05-07T00:25:47.207Z,99943.66
2019-05-07T00:28:52.811Z,99948.20
2019-05-07T00:31:58.091Z,99949.19
2019-05-07T00:35:04.917Z,99943.05
2019-05-07T00:38:12.901Z,99939.55
2019-05-07T00:41:37.085Z,99938.22
2019-05-07T00:45:20.283Z,99928.69
2019-05-07T00:48:23.596Z,99927.98
2019-05-07T00:51:37.853Z,99929.86
2019-05-07T00:54:42.977Z,99923.89
2019-05-07T00:57:52.630Z,99930.21
2019-05-07T01:00:57.839Z,99923.85
2019-05-07T01:04:03.007Z,99929.55
2019-05-07T01:07:08.244Z,99925.00
2019-05-07T01:10:13.828Z,99922.84
2019-05-07T01:13:19.025Z,99918.98
2019-05-07T01:16:24.293Z,99919.42
2019-05-07T01:19:32.683Z,99919.46
2019-05-07T01:22:37.417Z,99916.13
2019-05-07T01:25:43.157Z,99914.12
2019-05-07T01:29:02.515Z,99907.64
2019-05-07T01:32:17.690Z,99912.47
2019-05-07T01:35:42.325Z,99909.76
2019-05-07T01:38:47.522Z,99904.14
2019-05-07T01:41:52.675Z,99904.11
2019-05-07T01:44:57.821Z,99903.13
2019-05-07T01:48:04.404Z,99909.29
2019-05-07T01:51:09.726Z,99900.13
2019-05-07T01:54:14.846Z,99901.16
2019-05-07T01:57:19.991Z,99898.80
2019-05-07T02:00:25.147Z,99906.50
2019-05-07T02:03:42.173Z,99906.50
2019-05-07T02:07:05.182Z,99907.32
2019-05-07T02:10:24.161Z,99908.19
2019-05-07T02:13:29.363Z,99909.71
2019-05-07T02:16:34.473Z,99911.20
2019-05-07T02:19:39.583Z,99906.88
2019-05-07T02:22:44.721Z,99908.19
2019-05-07T02:25:49.915Z,99906.50
2019-05-07T02:28:55.074Z,99904.85
2019-05-07T02:32:00.214Z,99900.49
2019-05-07T02:35:05.537Z,99905.84
2019-05-07T02:38:19.239Z,99898.02
2019-05-07T02:41:27.816Z,99903.86
2019-05-07T02:44:34.916Z,99903.36
2019-05-07T02:47:40.019Z,99904.05
2019-05-07T02:50:53.954Z,99900.05
2019-05-07T02:54:05.783Z,99905.23
2019-05-07T02:57:16.612Z,99906.22
2019-05-07T03:00:19.514Z,99897.06
2019-05-07T03:03:24.965Z,99901.86
2019-05-07T03:06:30.006Z,99897.86
2019-05-07T03:09:35.165Z,99899.20
2019-05-07T03:12:42.933Z,99901.83
2019-05-07T03:15:47.293Z,99903.70
2019-05-07T03:18:53.232Z,99895.86
2019-05-07T03:21:58.741Z,99893.19
2019-05-07T03:25:16.337Z,99903.55
2019-05-07T03:28:23.256Z,99899.86
2019-05-07T03:31:46.359Z,99902.72
2019-05-07T03:35:16.245Z,99905.58
2019-05-07T03:38:22.871Z,99902.87
2019-05-07T03:41:27.271Z,99905.55
2019-05-07T03:44:57.348Z,99899.70
2019-05-07T03:48:09.256Z,99905.39
2019-05-07T03:51:14.374Z,99906.88
2019-05-07T03:54:19.545Z,99899.86
2019-05-07T03:57:24.795Z,99910.50
2019-05-07T04:00:33.051Z,99902.84
2019-05-07T04:03:36.847Z,99905.52
2019-05-07T04:06:43.401Z,99907.67
2019-05-07T04:09:48.811Z,99907.01
2019-05-07T04:12:54.088Z,99911.52
2019-05-07T04:15:59.198Z,99910.50
2019-05-07T04:19:04.371Z,99909.33
2019-05-07T04:22:09.500Z,99912.47
2019-05-07T04:25:36.496Z,99918.48
2019-05-07T04:29:04.768Z,99914.98
2019-05-07T04:32:09.365Z,99917.45
2019-05-07T04:35:20.334Z,99915.14
2019-05-07T04:38:25.520Z,99915.49
2019-05-07T04:41:32.927Z,99917.49
2019-05-07T04:44:37.475Z,99920.41
2019-05-07T04:47:47.214Z,99918.13
2019-05-07T04:50:54.171Z,99924.09
2019-05-07T04:53:58.596Z,99917.41
2019-05-07T04:57:05.370Z,99912.03
2019-05-07T05:00:13.398Z,99919.28
2019-05-07T05:03:25.794Z,99921.12
2019-05-07T05:06:32.921Z,99918.98
2019-05-07T05:09:39.004Z,99918.81
2019-05-07T05:12:44.216Z,99914.25
2019-05-07T05:15:52.639Z,99919.23
2019-05-07T05:18:57.786Z,99921.86
2019-05-07T05:22:22.163Z,99926.41
2019-05-07T05:25:32.274Z,99927.24
2019-05-07T05:28:37.540Z,99924.89
2019-05-07T05:31:43.818Z,99928.23
2019-05-07T05:34:49.026Z,99929.80
2019-05-07T05:37:54.955Z,99935.34
2019-05-07T05:41:02.553Z,99935.46
2019-05-07T05:44:19.249Z,99932.23
2019-05-07T05:47:24.394Z,99933.86
2019-05-07T05:50:33.086Z,99933.13
2019-05-07T05:53:46.547Z,99931.89
2019-05-07T05:56:56.519Z,99930.81
2019-05-07T06:00:23.442Z,99933.02
2019-05-07T06:04:05.991Z,99935.97
2019-05-07T06:07:31.869Z,99927.84
2019-05-07T06:10:51.869Z,99930.58
2019-05-07T06:14:03.778Z,99924.25
2019-05-07T06:17:22.806Z,99927.20
2019-05-07T06:20:46.891Z,99927.30
2019-05-07T06:23:55.806Z,99930.47
2019-05-07T06:27:02.929Z,99932.75
2019-05-07T06:30:08.888Z,99924.45
2019-05-07T06:33:14.160Z,99934.19
2019-05-07T06:36:19.289Z,99930.38
2019-05-07T06:39:27.817Z,99929.02
2019-05-07T06:42:42.849Z,99921.50
2019-05-07T06:45:51.939Z,99924.06
2019-05-07T06:48:58.274Z,99924.06
2019-05-07T06:52:03.381Z,99923.16
2019-05-07T06:58:18.788Z,99915.91
2019-05-07T07:01:55.295Z,99920.05
2019-05-07T07:05:33.016Z,99914.92
2019-05-07T07:08:46.524Z,99919.27
2019-05-07T07:11:55.631Z,99923.35
2019-05-07T07:15:02.782Z,99916.58
2019-05-07T07:18:07.723Z,99910.69
2019-05-07T07:21:12.840Z,99907.61
2019-05-07T07:24:17.978Z,99905.87
2019-05-07T07:27:23.155Z,99901.89
2019-05-07T07:30:53.063Z,99900.38
2019-05-07T07:34:02.259Z,99898.59
2019-05-07T07:37:26.536Z,99892.57
2019-05-07T07:40:42.196Z,99892.39
2019-05-07T07:43:47.127Z,99891.80
2019-05-07T07:46:53.141Z,99900.09
2019-05-07T07:49:58.539Z,99893.58
2019-05-07T07:53:03.650Z,99899.11
2019-05-07T07:56:26.376Z,99898.30
2019-05-07T07:59:56.337Z,99894.50
2019-05-07T08:03:04.301Z,99888.37
2019-05-07T08:06:09.536Z,99889.91
2019-05-07T08:09:14.830Z,99879.96
2019-05-07T08:12:21.867Z,99880.88
2019-05-07T08:15:26.828Z,99875.36
2019-05-07T08:18:32.786Z,99873.09
2019-05-07T08:21:38.045Z,99869.14
2019-05-07T08:24:43.224Z,99866.86
2019-05-07T08:27:48.391Z,99865.36
2019-05-07T08:31:18.182Z,99865.83
2019-05-07T08:34:32.499Z,99862.93
2019-05-07T08:37:37.792Z,99861.81
2019-05-07T08:40:42.951Z,99857.22
2019-05-07T08:43:48.398Z,99848.26
2019-05-07T08:47:12.796Z,99848.13
2019-05-07T08:50:17.930Z,99851.44
2019-05-07T08:53:23.040Z,99843.42
2019-05-07T08:56:28.199Z,99843.45
2019-05-07T08:59:35.406Z,99844.97
2019-05-07T09:02:42.127Z,99837.48
2019-05-07T09:05:47.281Z,99836.92
2019-05-07T09:08:52.651Z,99832.57
2019-05-07T09:11:57.842Z,99829.86
2019-05-07T09:15:03.023Z,99827.84
2019-05-07T09:18:08.145Z,99826.52
2019-05-07T09:21:13.434Z,99832.83
2019-05-07T09:24:18.579Z,99828.29
2019-05-07T09:27:32.917Z,99822.05
2019-05-07T09:30:42.019Z,99819.98
2019-05-07T09:33:48.967Z,99816.08
2019-05-07T09:36:55.759Z,99813.31
2019-05-07T09:40:05.066Z,99814.48
2019-05-07T09:43:11.768Z,99809.87
2019-05-07T09:46:17.170Z,99805.81
2019-05-07T09:49:22.345Z,99801.81
2019-05-07T09:52:27.536Z,99797.11
2019-05-07T09:55:32.819Z,99799.68
2019-05-07T09:58:39.228Z,99798.73
2019-05-07T10:01:44.529Z,99808.31
2019-05-07T10:04:49.749Z,99805.31
2019-05-07T10:07:55.141Z,99805.89
2019-05-07T10:11:00.322Z,99808.36
2019-05-07T10:14:08.873Z,99807.50
2019-05-07T10:17:30.341Z,99806.02
2019-05-07T10:20:35.495Z,99800.36
2019-05-07T10:23:41.664Z,99802.61
2019-05-07T10:26:46.907Z,99794.80
2019-05-07T10:29:53.019Z,99793.20
2019-05-07T10:32:58.315Z,99794.69
2019-05-07T10:36:03.525Z,99790.12
2019-05-07T10:39:09.258Z,99792.72
2019-05-07T10:42:14.475Z,99792.63
2019-05-07T10:45:37.561Z,99790.31
2019-05-07T10:48:50.676Z,99786.84
2019-05-07T10:51:55.823Z,99784.91
2019-05-07T10:55:02.879Z,99784.06
2019-05-07T10:58:07.862Z,99778.41
2019-05-07T11:01:15.738Z,99774.13
2019-05-07T11:04:21.519Z,99763.90
2019-05-07T11:07:27.409Z,99768.77
2019-05-07T11:10:32.866Z,99755.48
2019-05-07T11:13:38.126Z,99765.61
2019-05-07T11:16:52.088Z,99757.55
2019-05-07T11:19:57.400Z,99753.91
2019-05-07T11:23:02.754Z,99754.55
2019-05-07T11:26:07.845Z,99747.32
2019-05-07T11:29:13.158Z,99753.44
2019-05-07T11:32:18.208Z,99751.53
2019-05-07T11:35:23.330Z,99747.74
2019-05-07T11:38:28.444Z,99741.41
2019-05-07T11:41:51.838Z,99734.36
2019-05-07T11:44:57.072Z,99734.28
2019-05-07T11:48:04.282Z,99732.91
2019-05-07T11:51:33.929Z,99725.78
2019-05-07T11:54:39.086Z,99716.14
2019-05-07T11:57:44.575Z,99719.19
2019-05-07T12:01:08.818Z,99707.97
2019-05-07T12:04:13.947Z,99706.70
2019-05-07T12:07:19.065Z,99700.58
2019-05-07T12:10:24.187Z,99700.93
2019-05-07T12:13:29.374Z,99697.88
2019-05-07T12:16:34.545Z,99694.67
2019-05-07T12:19:43.716Z,99697.44
2019-05-07T12:22:47.601Z,99690.06
2019-05-07T12:25:53.001Z,99691.69
2019-05-07T12:28:58.183Z,99683.72
2019-05-07T12:32:14.593Z,99682.34
2019-05-07T12:35:21.856Z,99681.07
2019-05-07T12:38:26.638Z,99671.91
2019-05-07T12:41:33.707Z,99667.43
2019-05-07T12:44:39.202Z,99673.74
2019-05-07T12:47:44.330Z,99664.27
2019-05-07T12:50:49.505Z,99671.70
2019-05-07T12:54:06.299Z,99662.94
2019-05-07T12:57:11.882Z,99663.54
2019-05-07T13:00:35.187Z,99661.70
2019-05-07T13:03:56.497Z,99652.77
2019-05-07T13:07:29.970Z,99651.86
2019-05-07T13:10:35.129Z,99644.23
2019-05-07T13:13:42.231Z,99643.56
2019-05-07T13:16:47.250Z,99636.86
2019-05-07T13:19:52.671Z,99633.97
2019-05-07T13:22:57.745Z,99632.93
2019-05-07T13:26:03.014Z,99636.16
2019-05-07T13:29:08.171Z,99636.95
2019-05-07T13:32:15.181Z,99627.91
2019-05-07T13:35:20.696Z,99624.83
2019-05-07T13:38:45.264Z,99621.48
2019-05-07T13:41:59.195Z,99623.12
2019-05-07T13:45:32.706Z,99619.27
2019-05-07T13:48:39.190Z,99606.73
2019-05-07T13:51:44.865Z,99607.33
2019-05-07T13:54:52.435Z,99597.75
2019-05-07T13:57:56.848Z,99595.25
2019-05-07T14:01:22.825Z,99593.17
2019-05-07T14:04:27.815Z,99589.33
2019-05-07T14:07:34.730Z,99586.69
2019-05-07T14:10:39.962Z,99583.67
2019-05-07T14:13:45.102Z,99581.02
2019-05-07T14:16:52.736Z,99583.47
2019-05-07T14:19:57.120Z,99578.38
2019-05-07T14:23:02.361Z,99577.65
2019-05-07T14:26:07.572Z,99582.61
2019-05-07T14:29:12.682Z,99572.77
2019-05-07T14:32:46.056Z,99572.26
2019-05-07T14:36:13.936Z,99577.27
2019-05-07T14:39:19.117Z,99571.33
2019-05-07T14:42:32.723Z,99565.13
2019-05-07T14:45:37.544Z,99565.58
2019-05-07T14:48:43.846Z,99561.09
2019-05-07T14:51:49.229Z,99552.88
2019-05-07T14:54:54.528Z,99559.44
2019-05-07T14:58:01.704Z,99555.67
2019-05-07T15:01:07.895Z,99557.66
2019-05-07T15:04:13.082Z,99550.85
2019-05-07T15:07:18.185Z,99549.38
2019-05-07T15:10:23.336Z,99554.05
2019-05-07T15:13:28.773Z,99546.41
2019-05-07T15:16:35.004Z,99546.67
2019-05-07T15:19:40.106Z,99547.58
2019-05-07T15:22:52.670Z,99539.66
2019-05-07T15:26:01.869Z,99537.95
2019-05-07T15:29:09.456Z,99539.56
2019-05-07T15:32:14.625Z,99540.20
2019-05-07T15:35:19.885Z,99540.39
2019-05-07T15:38:26.036Z,99528.95
2019-05-07T15:41:32.119Z,99531.36
2019-05-07T15:44:37.303Z,99533.95
2019-05-07T15:47:46.184Z,99530.84
2019-05-07T15:50:51.995Z,99529.56
2019-05-07T15:53:58.598Z,99527.31
2019-05-07T15:57:05.969Z,99533.57
2019-05-07T16:00:13.962Z,99526.84
2019-05-07T16:03:24.265Z,99528.28
2019-05-07T16:06:29.474Z,99521.33
2019-05-07T16:09:43.608Z,99520.63
2019-05-07T16:12:52.980Z,99517.06
2019-05-07T16:15:57.841Z,99516.39
2019-05-07T16:19:11.889Z,99512.55
2019-05-07T16:22:24.144Z,99506.72
2019-05-07T16:25:29.315Z,99502.91
2019-05-07T16:28:34.547Z,99499.71
2019-05-07T16:31:40.894Z,99497.30
2019-05-07T16:34:45.978Z,99494.83
2019-05-07T16:37:52.229Z,99491.79
2019-05-07T16:40:57.446Z,99489.30
2019-05-07T16:44:02.958Z,99484.89
2019-05-07T16:47:09.178Z,99483.59
2019-05-07T16:50:14.992Z,99480.83
2019-05-07T16:53:27.465Z,99477.05
2019-05-07T16:56:27.095Z,99476.81
2019-05-07T16:59:32.603Z,99479.56
2019-05-07T17:02:42.521Z,99476.95
2019-05-07T17:05:47.636Z,99472.27
2019-05-07T17:08:59.649Z,99480.38
2019-05-07T17:12:07.221Z,99476.55
2019-05-07T17:15:12.518Z,99473.66
2019-05-07T17:18:17.808Z,99477.30
2019-05-07T17:21:23.813Z,99470.06
2019-05-07T17:24:28.986Z,99466.33
2019-05-07T17:27:34.289Z,99464.47
2019-05-07T17:30:41.927Z,99465.87
2019-05-07T17:33:46.310Z,99460.94
2019-05-07T17:36:52.402Z,99456.97
2019-05-07T17:39:57.691Z,99458.92
2019-05-07T17:43:03.260Z,99456.16
2019-05-07T17:46:09.527Z,99456.59
2019-05-07T17:49:14.804Z,99462.24
2019-05-07T17:52:20.059Z,99458.27
2019-05-07T17:55:25.166Z,99461.56
2019-05-07T17:58:32.400Z,99463.77
2019-05-07T18:02:05.180Z,99458.44
2019-05-07T18:05:11.906Z,99458.83
2019-05-07T18:08:17.207Z,99458.69
2019-05-07T18:11:24.312Z,99451.58
2019-05-07T18:14:29.339Z,99454.52
2019-05-07T18:17:48.681Z,99455.13
2019-05-07T18:20:53.874Z,99447.70
2019-05-07T18:24:12.679Z,99447.10
2019-05-07T18:27:07.801Z,99451.17
2019-05-07T18:30:16.088Z,99454.02
2019-05-07T18:33:34.806Z,99453.34
2019-05-07T18:36:41.788Z,99454.59
2019-05-07T18:39:46.798Z,99454.06
2019-05-07T18:42:52.400Z,99454.38
2019-05-07T18:45:58.849Z,99461.90
2019-05-07T18:49:03.993Z,99462.06
2019-05-07T18:52:09.136Z,99456.13
2019-05-07T18:55:14.415Z,99452.49
2019-05-07T18:58:19.576Z,99460.41
2019-05-07T19:01:26.381Z,99458.08
2019-05-07T19:04:32.794Z,99469.87
2019-05-07T19:07:38.000Z,99468.82
2019-05-07T19:10:43.211Z,99467.72
2019-05-07T19:13:48.365Z,99469.91
2019-05-07T19:16:53.554Z,99466.17
2019-05-07T19:19:58.853Z,99468.31
2019-05-07T19:23:03.987Z,99467.28
2019-05-07T19:26:09.198Z,99468.96
2019-05-07T19:29:14.605Z,99478.46
2019-05-07T19:32:19.740Z,99472.50
2019-05-07T19:35:24.866Z,99473.66
2019-05-07T19:38:32.187Z,99471.52
2019-05-07T19:41:36.974Z,99463.72
2019-05-07T19:44:42.391Z,99460.31
2019-05-07T19:47:48.591Z,99460.27
2019-05-07T19:50:53.709Z,99455.89
2019-05-07T19:53:59.024Z,99460.52
2019-05-07T19:57:05.400Z,99463.45
2019-05-07T20:00:12.138Z,99454.41
2019-05-07T20:03:17.709Z,99456.33
2019-05-07T20:06:23.518Z,99455.66
2019-05-07T20:09:33.050Z,99453.42
2019-05-07T20:12:38.261Z,99458.20
2019-05-07T20:15:47.814Z,99451.08
2019-05-07T20:18:52.983Z,99445.75
2019-05-07T20:21:59.063Z,99445.66
2019-05-07T20:25:15.216Z,99450.17
2019-05-07T20:28:12.960Z,99449.82
2019-05-07T20:31:18.495Z,99441.64
2019-05-07T20:34:24.847Z,99440.94
2019-05-07T20:37:30.118Z,99445.66
2019-05-07T20:40:37.149Z,99444.41
2019-05-07T20:43:42.947Z,99446.69
2019-05-07T20:46:48.254Z,99447.63
2019-05-07T20:49:53.425Z,99443.17
2019-05-07T20:52:58.549Z,99442.19
2019-05-07T20:56:04.539Z,99438.44
2019-05-07T20:59:09.638Z,99433.36
2019-05-07T21:02:14.828Z,99428.38
2019-05-07T21:05:19.943Z,99427.58
2019-05-07T21:08:25.143Z,99428.64
2019-05-07T21:11:32.321Z,99432.69
2019-05-07T21:14:37.244Z,99428.28
2019-05-07T21:17:42.928Z,99427.03
2019-05-07T21:20:48.052Z,99427.00
2019-05-07T21:23:53.321Z,99422.17
2019-05-07T21:26:58.358Z,99427.83
2019-05-07T21:30:04.742Z,99414.80
2019-05-07T21:33:11.817Z,99419.57
2019-05-07T21:36:16.764Z,99418.26
2019-05-07T21:39:22.419Z,99419.27
2019-05-07T21:42:27.550Z,99416.91
2019-05-07T21:45:32.842Z,99412.52
2019-05-07T21:48:38.871Z,99410.00
2019-05-07T21:51:44.047Z,99403.70
2019-05-07T21:54:58.210Z,99406.66
2019-05-07T21:58:25.435Z,99397.86
2019-05-07T22:01:38.640Z,99393.66
2019-05-07T22:04:43.922Z,99385.98
2019-05-07T22:07:54.227Z,99388.88
2019-05-07T22:10:57.378Z,99383.83
2019-05-07T22:14:02.565Z,99386.00
2019-05-07T22:17:07.690Z,99386.70
2019-05-07T22:20:15.952Z,99385.58
2019-05-07T22:23:19.818Z,99381.23
2019-05-07T22:26:26.596Z,99374.03
2019-05-07T22:29:31.944Z,99371.77
2019-05-07T22:32:44.148Z,99360.39
2019-05-07T22:35:49.313Z,99362.34
2019-05-07T22:39:05.936Z,99359.55
2019-05-07T22:42:12.678Z,99355.07
2019-05-07T22:45:18.098Z,99350.06
2019-05-07T22:48:23.323Z,99345.36
2019-05-07T22:51:28.483Z,99339.75
2019-05-07T22:54:33.569Z,99335.41
2019-05-07T22:57:54.869Z,99328.23
2019-05-07T23:01:04.131Z,99326.66
2019-05-07T23:04:09.200Z,99323.73
2019-05-07T23:07:14.389Z,99313.58
2019-05-07T23:10:19.642Z,99311.73
2019-05-07T23:13:24.823Z,99307.97
2019-05-07T23:16:29.940Z,99299.55
2019-05-07T23:19:35.233Z,99302.11
2019-05-07T23:22:42.762Z,99298.06
2019-05-07T23:25:47.216Z,99290.84
2019-05-07T23:28:52.282Z,99290.45
2019-05-07T23:31:57.493Z,99286.95
2019-05-07T23:35:02.606Z,99281.65
2019-05-07T23:38:07.847Z,99279.34
2019-05-07T23:41:44.114Z,99279.41
2019-05-07T23:44:49.272Z,99282.80
2019-05-07T23:47:54.427Z,99276.13
2019-05-07T23:51:01.494Z,99270.19
2019-05-07T23:54:06.449Z,99269.09
2019-05-07T23:57:14.896Z,99259.45
